F/V Attalaya Berria — FHCB — position and weather

sailwx.info

Track history (hours):
 
Tides and Currents Weather Stations Pressure Air Temp Water Temp Dewpoint Dewpoint Depression Visibility Wind Speed Wind Dir Waves Ship Positions

F/V Attalaya Berria

Last reported at 2016-Apr-29 03:21 UTC. Time now 2016-May-01 19:27 UTC.
Position N 43°22' W 001°47'.

Length 26 m.

Type: Fishing. MMSI: 228315000.

Date/timePositionNaut miles runAvg speedWind from/ knotsBaromVisibWave heightAir tempDewpointWater temp
2016-Apr-29 03:21N 43°22' W 001°47'3 4.4
2016-Apr-29 02:33N 43°25' W 001°45'2 2.1
2016-Apr-29 01:29N 43°26' W 001°42'5 5.5
2016-Apr-29 00:33N 43°30' W 001°37'4 4.2
2016-Apr-28 23:32N 43°27' W 001°41'1 1.5
2016-Apr-28 22:33N 43°28' W 001°40'5 2.3
2016-Apr-28 20:33N 43°31' W 001°35'7 7.3
2016-Apr-28 19:33N 43°26' W 001°43'5 0.1
2016-Apr-27 04:17N 43°22' W 001°47'9 1.6
2016-Apr-26 22:33N 43°29' W 001°38'1 0.9
2016-Apr-26 21:33N 43°29' W 001°37'3 2.7
2016-Apr-26 20:33N 43°31' W 001°34'7 6.9
2016-Apr-26 19:33N 43°27' W 001°42'5 0.3
2016-Apr-26 05:33N 43°23' W 001°47'9 9.0
2016-Apr-26 04:34N 43°29' W 001°37'6 6.2
2016-Apr-26 03:34N 43°25' W 001°44'1 1.3
2016-Apr-26 02:33N 43°26' W 001°42'4 4.5
2016-Apr-26 01:33N 43°28' W 001°37'0 0.4
2016-Apr-26 00:33N 43°29' W 001°38'2 2.3
2016-Apr-25 23:33N 43°30' W 001°35'1 0.6
2016-Apr-25 22:33N 43°31' W 001°35'1 0.5
2016-Apr-25 21:33N 43°31' W 001°35'2 1.5
2016-Apr-25 20:33N 43°30' W 001°36'7 6.6
2016-Apr-25 19:33N 43°26' W 001°44'4 4.3
2016-Apr-25 18:33N 43°22' W 001°47'  
2016-Apr-21 05:33N 43°22' W 001°47'6 1.9
2016-Apr-21 02:33N 43°21' W 001°55'8 8.0
2016-Apr-21 01:33N 43°25' W 001°45'0 0.5
2016-Apr-21 00:33N 43°25' W 001°45'0 0.2
2016-Apr-20 23:33N 43°25' W 001°44'0 0.0
2016-Apr-20 22:33N 43°25' W 001°44'0 0.0
2016-Apr-20 21:33N 43°25' W 001°44'0 0.0
2016-Apr-20 20:33N 43°25' W 001°44'0 0.1
2016-Apr-20 19:32N 43°25' W 001°44'3 3.4
2016-Apr-20 18:33N 43°22' W 001°47'1 0.0
2016-Apr-20 04:34N 43°23' W 001°47'6 5.5
2016-Apr-20 03:33N 43°23' W 001°40'0 0.0
2016-Apr-20 02:33N 43°23' W 001°40'4 3.8
2016-Apr-20 01:33N 43°25' W 001°44'3 2.6
2016-Apr-20 00:31N 43°27' W 001°46'3 0.9
2016-Apr-19 21:13N 43°27' W 001°42'1 0.8
2016-Apr-19 20:27N 43°27' W 001°41'1 1.0
2016-Apr-19 19:31N 43°27' W 001°42'6 0.4
2016-Apr-19 04:22N 43°22' W 001°47'  
Track history (hours):
 
Tides and Currents Weather Stations Pressure Air Temp Water Temp Dewpoint Dewpoint Depression Visibility Wind Speed Wind Dir Waves Ship Positions

F/V Attalaya Berria

Last reported at 2016-Apr-29 03:21 UTC. Time now 2016-May-01 19:27 UTC.
Position N 43°22' W 001°47'.

Length 26 m.

Type: Fishing. MMSI: 228315000.

Date/timePositionNaut miles runAvg speedWind from/ knotsBaromVisibWave heightAir tempDewpointWater temp
2016-Apr-29 03:21N 43°22' W 001°47'3 4.4
2016-Apr-29 02:33N 43°25' W 001°45'2 2.1
2016-Apr-29 01:29N 43°26' W 001°42'5 5.5
2016-Apr-29 00:33N 43°30' W 001°37'4 4.2
2016-Apr-28 23:32N 43°27' W 001°41'1 1.5
2016-Apr-28 22:33N 43°28' W 001°40'5 2.3
2016-Apr-28 20:33N 43°31' W 001°35'7 7.3
2016-Apr-28 19:33N 43°26' W 001°43'5 0.1
2016-Apr-27 04:17N 43°22' W 001°47'9 1.6
2016-Apr-26 22:33N 43°29' W 001°38'1 0.9
2016-Apr-26 21:33N 43°29' W 001°37'3 2.7
2016-Apr-26 20:33N 43°31' W 001°34'7 6.9
2016-Apr-26 19:33N 43°27' W 001°42'5 0.3
2016-Apr-26 05:33N 43°23' W 001°47'9 9.0
2016-Apr-26 04:34N 43°29' W 001°37'6 6.2
2016-Apr-26 03:34N 43°25' W 001°44'1 1.3
2016-Apr-26 02:33N 43°26' W 001°42'4 4.5
2016-Apr-26 01:33N 43°28' W 001°37'0 0.4
2016-Apr-26 00:33N 43°29' W 001°38'2 2.3
2016-Apr-25 23:33N 43°30' W 001°35'1 0.6
2016-Apr-25 22:33N 43°31' W 001°35'1 0.5
2016-Apr-25 21:33N 43°31' W 001°35'2 1.5
2016-Apr-25 20:33N 43°30' W 001°36'7 6.6
2016-Apr-25 19:33N 43°26' W 001°44'4 4.3
2016-Apr-25 18:33N 43°22' W 001°47'  
2016-Apr-21 05:33N 43°22' W 001°47'6 1.9
2016-Apr-21 02:33N 43°21' W 001°55'8 8.0
2016-Apr-21 01:33N 43°25' W 001°45'0 0.5
2016-Apr-21 00:33N 43°25' W 001°45'0 0.2
2016-Apr-20 23:33N 43°25' W 001°44'0 0.0
2016-Apr-20 22:33N 43°25' W 001°44'0 0.0
2016-Apr-20 21:33N 43°25' W 001°44'0 0.0
2016-Apr-20 20:33N 43°25' W 001°44'0 0.1
2016-Apr-20 19:32N 43°25' W 001°44'3 3.4
2016-Apr-20 18:33N 43°22' W 001°47'1 0.0
2016-Apr-20 04:34N 43°23' W 001°47'6 5.5
2016-Apr-20 03:33N 43°23' W 001°40'0 0.0
2016-Apr-20 02:33N 43°23' W 001°40'4 3.8
2016-Apr-20 01:33N 43°25' W 001°44'3 2.6
2016-Apr-20 00:31N 43°27' W 001°46'3 0.9
2016-Apr-19 21:13N 43°27' W 001°42'1 0.8
2016-Apr-19 20:27N 43°27' W 001°41'1 1.0
2016-Apr-19 19:31N 43°27' W 001°42'6 0.4
2016-Apr-19 04:22N 43°22' W 001°47'  

Dump ship's entire track history